createdAt,value
2022-08-11T00:01:20.858Z,18.00
2022-08-11T00:03:53.835Z,17.90
2022-08-11T00:06:30.316Z,17.90
2022-08-11T00:08:58.754Z,17.80
2022-08-11T00:11:37.847Z,17.70
2022-08-11T00:14:13.007Z,17.60
2022-08-11T00:16:42.004Z,17.50
2022-08-11T00:19:09.668Z,17.40
2022-08-11T00:22:04.707Z,17.30
2022-08-11T00:24:51.650Z,17.30
2022-08-11T00:27:33.334Z,17.20
2022-08-11T00:30:00.783Z,17.10
2022-08-11T00:32:28.998Z,17.00
2022-08-11T00:35:52.055Z,16.90
2022-08-11T00:37:49.831Z,16.90
2022-08-11T00:40:33.543Z,16.90
2022-08-11T00:43:04.442Z,17.00
2022-08-11T00:45:51.367Z,16.90
2022-08-11T00:48:33.393Z,17.00
2022-08-11T00:51:21.469Z,17.00
2022-08-11T00:54:19.956Z,17.00
2022-08-11T00:57:36.791Z,16.80
2022-08-11T01:00:19.045Z,16.70
2022-08-11T01:03:04.550Z,16.50
2022-08-11T01:05:57.691Z,16.50
2022-08-11T01:08:49.532Z,16.40
2022-08-11T01:11:55.655Z,16.30
2022-08-11T01:14:57.315Z,16.30
2022-08-11T01:17:26.931Z,16.20
2022-08-11T01:20:48.579Z,16.20
2022-08-11T01:23:12.657Z,16.20
2022-08-11T01:26:32.249Z,16.20
2022-08-11T01:29:26.752Z,16.30
2022-08-11T01:32:17.803Z,16.30
2022-08-11T01:35:09.031Z,16.20
2022-08-11T01:37:44.539Z,16.10
2022-08-11T01:40:23.305Z,16.10
2022-08-11T01:43:55.467Z,16.10
2022-08-11T01:46:27.010Z,15.90
2022-08-11T01:50:05.180Z,15.80
2022-08-11T01:52:33.375Z,15.70
2022-08-11T01:55:32.817Z,15.60
2022-08-11T01:58:44.240Z,15.50
2022-08-11T02:01:35.931Z,15.40
2022-08-11T02:04:24.377Z,15.30
2022-08-11T02:07:10.887Z,15.20
2022-08-11T02:09:55.587Z,15.20
2022-08-11T02:12:52.232Z,15.00
2022-08-11T02:15:41.992Z,15.00
2022-08-11T02:18:20.111Z,14.90
2022-08-11T02:21:18.467Z,14.80
2022-08-11T02:24:05.836Z,14.70
2022-08-11T02:26:43.359Z,14.60
2022-08-11T02:29:33.187Z,14.50
2022-08-11T02:32:47.854Z,14.40
2022-08-11T02:35:22.934Z,14.30
2022-08-11T02:37:52.225Z,14.30
2022-08-11T02:40:36.068Z,14.20
2022-08-11T02:43:02.945Z,14.20
2022-08-11T02:45:54.879Z,14.10
2022-08-11T02:48:49.448Z,14.00
2022-08-11T02:51:42.464Z,14.00
2022-08-11T02:54:25.415Z,14.00
2022-08-11T02:57:11.258Z,13.90
2022-08-11T02:59:56.765Z,13.80
2022-08-11T03:02:32.653Z,13.70
2022-08-11T03:05:16.992Z,13.70
2022-08-11T03:08:23.192Z,13.60
2022-08-11T03:11:24.104Z,13.60
2022-08-11T03:14:29.342Z,13.60
2022-08-11T03:17:18.403Z,13.60
2022-08-11T03:20:22.918Z,13.60
2022-08-11T03:22:56.948Z,13.70
2022-08-11T03:25:51.087Z,13.70
2022-08-11T03:28:32.870Z,13.70
2022-08-11T03:30:59.658Z,13.80
2022-08-11T03:33:52.208Z,13.90
2022-08-11T03:36:33.252Z,13.90
2022-08-11T03:39:03.643Z,13.90
2022-08-11T03:42:04.235Z,14.00
2022-08-11T03:45:19.672Z,14.00
2022-08-11T03:48:08.146Z,14.30
2022-08-11T03:51:08.599Z,14.30
2022-08-11T03:54:16.526Z,14.40
2022-08-11T03:57:21.107Z,14.40
2022-08-11T04:00:11.130Z,14.50
2022-08-11T04:02:43.270Z,14.50
2022-08-11T04:05:38.452Z,14.50
2022-08-11T04:08:24.207Z,14.50
2022-08-11T04:11:10.059Z,14.50
2022-08-11T04:14:30.163Z,14.50
2022-08-11T04:17:09.552Z,14.50
2022-08-11T04:20:18.709Z,14.70
2022-08-11T04:23:03.461Z,14.80
2022-08-11T04:25:58.057Z,14.90
2022-08-11T04:28:43.074Z,15.00
2022-08-11T04:31:44.106Z,15.00
2022-08-11T04:34:41.073Z,15.00
2022-08-11T04:37:35.934Z,15.10
2022-08-11T04:40:24.634Z,15.10
2022-08-11T04:43:23.931Z,15.20
2022-08-11T04:46:12.248Z,15.30
2022-08-11T04:49:33.339Z,15.40
2022-08-11T04:52:19.375Z,15.40
2022-08-11T04:55:26.018Z,15.60
2022-08-11T04:58:20.550Z,15.80
2022-08-11T05:01:37.497Z,16.10
2022-08-11T05:04:32.318Z,16.50
2022-08-11T05:07:29.438Z,16.90
2022-08-11T05:10:10.150Z,17.20
2022-08-11T05:12:49.046Z,17.60
2022-08-11T05:15:53.192Z,17.90
2022-08-11T05:18:42.601Z,18.10
2022-08-11T05:21:44.471Z,18.50
2022-08-11T05:24:40.874Z,18.80
2022-08-11T05:27:32.827Z,19.10
2022-08-11T05:30:24.872Z,19.40
2022-08-11T05:33:21.959Z,19.80
2022-08-11T05:36:00.612Z,20.10
2022-08-11T05:38:54.848Z,20.30
2022-08-11T05:41:46.803Z,20.40
2022-08-11T05:44:37.653Z,20.60
2022-08-11T05:47:23.515Z,20.70
2022-08-11T05:50:13.792Z,20.60
2022-08-11T05:53:09.357Z,20.40
2022-08-11T05:56:03.860Z,20.50
2022-08-11T05:58:42.773Z,20.50
2022-08-11T06:01:12.373Z,20.40
2022-08-11T06:04:03.351Z,20.30
2022-08-11T06:06:30.987Z,20.20
2022-08-11T06:08:59.572Z,20.10
2022-08-11T06:11:44.081Z,20.00
2022-08-11T06:14:13.190Z,20.00
2022-08-11T06:16:42.284Z,20.00
2022-08-11T06:19:10.408Z,20.10
2022-08-11T06:21:37.903Z,20.10
2022-08-11T06:24:11.729Z,20.20
2022-08-11T06:27:09.182Z,20.20
2022-08-11T06:29:46.838Z,20.20
2022-08-11T06:32:21.056Z,20.40
2022-08-11T06:34:59.688Z,20.50
2022-08-11T06:37:47.011Z,20.50
2022-08-11T06:40:44.645Z,20.60
2022-08-11T06:43:16.681Z,20.80
2022-08-11T06:46:03.167Z,21.10
2022-08-11T06:48:33.394Z,21.20
2022-08-11T06:51:14.046Z,21.30
2022-08-11T06:54:03.791Z,21.30
2022-08-11T06:57:29.919Z,21.30
2022-08-11T07:00:04.612Z,21.30
2022-08-11T07:02:42.432Z,21.20
2022-08-11T07:05:23.094Z,21.30
2022-08-11T07:08:39.562Z,21.30
2022-08-11T07:11:37.419Z,21.40
2022-08-11T07:14:23.986Z,21.50
2022-08-11T07:16:51.684Z,21.50
2022-08-11T07:19:45.488Z,21.60
2022-08-11T07:22:32.550Z,21.80
2022-08-11T07:25:30.027Z,21.80
2022-08-11T07:28:18.032Z,21.80
2022-08-11T07:30:45.933Z,21.90
2022-08-11T07:34:08.573Z,22.10
2022-08-11T07:36:15.104Z,22.40
2022-08-11T07:38:47.422Z,22.50
2022-08-11T07:41:17.241Z,22.60
2022-08-11T07:43:49.678Z,22.80
2022-08-11T07:46:37.193Z,23.00
2022-08-11T07:49:24.618Z,23.00
2022-08-11T07:52:11.207Z,23.10
2022-08-11T07:54:39.489Z,23.20
2022-08-11T07:58:01.190Z,23.30
2022-08-11T08:00:36.875Z,23.40
2022-08-11T08:03:24.457Z,23.40
2022-08-11T08:06:28.420Z,23.40
2022-08-11T08:09:16.967Z,23.50
2022-08-11T08:12:03.919Z,23.70
2022-08-11T08:14:50.563Z,23.70
2022-08-11T08:17:37.175Z,23.80
2022-08-11T08:20:04.623Z,23.80
2022-08-11T08:22:38.609Z,23.70
2022-08-11T08:25:07.876Z,23.80
2022-08-11T08:27:35.851Z,24.00
2022-08-11T08:30:22.450Z,24.00
2022-08-11T08:32:51.647Z,24.10
2022-08-11T08:35:19.208Z,24.20
2022-08-11T08:37:47.679Z,24.30
2022-08-11T08:40:14.934Z,24.50
2022-08-11T08:42:55.939Z,24.70
2022-08-11T08:45:24.687Z,24.80
2022-08-11T08:48:03.595Z,24.90
2022-08-11T08:50:54.759Z,25.00
2022-08-11T08:53:31.904Z,25.00
2022-08-11T08:56:00.758Z,25.00
2022-08-11T08:58:28.931Z,25.10
2022-08-11T09:00:58.464Z,25.20
2022-08-11T09:04:04.670Z,25.20
2022-08-11T09:06:17.184Z,25.30
2022-08-11T09:08:45.386Z,25.40
2022-08-11T09:11:33.041Z,25.50
2022-08-11T09:14:05.007Z,25.60
2022-08-11T09:16:36.274Z,25.70
2022-08-11T09:19:03.975Z,25.60
2022-08-11T09:21:38.589Z,25.60
2022-08-11T09:24:36.750Z,25.60
2022-08-11T09:27:08.684Z,25.70
2022-08-11T09:29:38.295Z,25.80
2022-08-11T09:32:07.443Z,25.80
2022-08-11T09:34:37.413Z,25.70
2022-08-11T09:37:38.418Z,25.80
2022-08-11T09:40:29.091Z,25.90
2022-08-11T09:43:21.425Z,26.00
2022-08-11T09:45:51.563Z,26.10
2022-08-11T09:48:20.114Z,26.30
2022-08-11T09:50:50.897Z,26.40
2022-08-11T09:53:37.379Z,26.50
2022-08-11T09:56:37.043Z,26.50
2022-08-11T09:59:05.849Z,26.50
2022-08-11T10:01:56.192Z,26.40
2022-08-11T10:04:32.871Z,26.50
2022-08-11T10:07:01.897Z,26.50
2022-08-11T10:10:00.210Z,26.60
2022-08-11T10:12:36.237Z,26.70
2022-08-11T10:15:28.204Z,26.90
2022-08-11T10:18:23.539Z,26.90
2022-08-11T10:20:54.171Z,26.90
2022-08-11T10:24:01.420Z,27.10
2022-08-11T10:26:48.580Z,27.20
2022-08-11T10:29:36.914Z,27.30
2022-08-11T10:32:27.064Z,27.40
2022-08-11T10:35:00.106Z,27.50
2022-08-11T10:38:08.557Z,27.70
2022-08-11T10:40:23.524Z,27.60
2022-08-11T10:43:05.431Z,27.40
2022-08-11T10:45:54.829Z,27.40
2022-08-11T10:48:25.174Z,27.50
2022-08-11T10:51:11.166Z,27.50
2022-08-11T10:54:11.494Z,27.40
2022-08-11T10:56:59.012Z,27.50
2022-08-11T10:59:29.978Z,27.60
2022-08-11T11:01:59.037Z,27.70
2022-08-11T11:04:53.163Z,27.70
2022-08-11T11:07:29.168Z,27.70
2022-08-11T11:10:03.786Z,27.70
2022-08-11T11:13:04.600Z,27.70
2022-08-11T11:16:09.783Z,27.70
2022-08-11T11:18:38.028Z,27.80
2022-08-11T11:21:18.574Z,27.80
2022-08-11T11:24:12.165Z,27.80
2022-08-11T11:26:59.974Z,27.80
2022-08-11T11:29:46.935Z,27.80
2022-08-11T11:32:57.358Z,27.70
2022-08-11T11:35:45.324Z,27.90
2022-08-11T11:38:14.166Z,28.00
2022-08-11T11:40:41.988Z,28.00
2022-08-11T11:43:09.090Z,28.10
2022-08-11T11:45:36.448Z,28.20
2022-08-11T11:48:04.115Z,28.10
2022-08-11T11:50:35.824Z,28.20
2022-08-11T11:53:06.869Z,28.30
2022-08-11T11:55:35.039Z,28.30
2022-08-11T11:58:22.851Z,28.30
2022-08-11T12:01:11.042Z,28.30
2022-08-11T12:03:39.118Z,28.20
2022-08-11T12:06:09.660Z,28.20
2022-08-11T12:08:37.921Z,28.30
2022-08-11T12:11:27.412Z,28.60
2022-08-11T12:13:58.411Z,28.70
2022-08-11T12:16:33.022Z,28.70
2022-08-11T12:19:11.815Z,28.50
2022-08-11T12:22:00.658Z,28.60
2022-08-11T12:24:48.513Z,28.60
2022-08-11T12:27:24.823Z,28.80
2022-08-11T12:30:08.624Z,29.00
2022-08-11T12:32:38.473Z,29.00
2022-08-11T12:35:06.819Z,28.90
2022-08-11T12:37:43.722Z,29.10
2022-08-11T12:40:43.227Z,29.10
2022-08-11T12:43:41.922Z,29.20
2022-08-11T12:46:18.279Z,29.10
2022-08-11T12:49:07.853Z,29.10
2022-08-11T12:52:11.502Z,29.10
2022-08-11T12:55:02.396Z,29.20
2022-08-11T12:58:23.641Z,29.40
2022-08-11T13:01:12.571Z,29.40
2022-08-11T13:03:58.696Z,29.50
2022-08-11T13:06:26.315Z,29.50
2022-08-11T13:08:59.043Z,29.60
2022-08-11T13:11:56.633Z,29.60
2022-08-11T13:14:26.375Z,29.60
2022-08-11T13:17:12.027Z,29.60
2022-08-11T13:19:42.629Z,29.60
2022-08-11T13:22:11.880Z,29.60
2022-08-11T13:24:40.482Z,29.60
2022-08-11T13:27:07.687Z,29.70
2022-08-11T13:29:36.053Z,29.80
2022-08-11T13:32:03.603Z,29.90
2022-08-11T13:34:35.233Z,29.80
2022-08-11T13:37:05.362Z,29.80
2022-08-11T13:39:34.523Z,29.80
2022-08-11T13:42:03.839Z,29.80
2022-08-11T13:44:34.983Z,29.80
2022-08-11T13:47:04.746Z,29.70
2022-08-11T13:49:39.819Z,29.80
2022-08-11T13:52:12.827Z,29.80
2022-08-11T13:54:41.289Z,29.90
2022-08-11T13:57:13.765Z,29.90
2022-08-11T14:00:09.629Z,29.80
2022-08-11T14:02:43.317Z,29.80
2022-08-11T14:05:19.785Z,29.90
2022-08-11T14:08:37.656Z,30.00
2022-08-11T14:12:22.096Z,30.00
2022-08-11T14:14:13.784Z,29.90
2022-08-11T14:16:43.837Z,30.00
2022-08-11T14:19:14.483Z,29.90
2022-08-11T14:22:07.103Z,29.80
2022-08-11T14:24:41.256Z,29.90
2022-08-11T14:28:31.070Z,29.90
2022-08-11T14:29:59.417Z,29.90
2022-08-11T14:32:26.798Z,29.90
2022-08-11T14:34:55.140Z,29.70
2022-08-11T14:37:24.078Z,29.70
2022-08-11T14:39:57.173Z,29.70
2022-08-11T14:42:46.326Z,29.80
2022-08-11T14:45:58.132Z,29.80
2022-08-11T14:48:23.154Z,29.80
2022-08-11T14:50:50.425Z,29.80
2022-08-11T14:53:18.729Z,29.80
2022-08-11T14:56:04.782Z,29.80
2022-08-11T14:58:33.904Z,29.90
2022-08-11T15:01:02.435Z,30.10
2022-08-11T15:03:33.566Z,30.10
2022-08-11T15:06:02.441Z,30.00
2022-08-11T15:08:50.142Z,30.00
2022-08-11T15:11:37.715Z,29.90
2022-08-11T15:14:07.515Z,29.90
2022-08-11T15:16:56.109Z,29.90
2022-08-11T15:19:24.251Z,29.90
2022-08-11T15:22:09.833Z,29.80
2022-08-11T15:24:37.148Z,29.80
2022-08-11T15:27:32.248Z,29.80
2022-08-11T15:30:32.460Z,29.80
2022-08-11T15:33:28.022Z,29.90
2022-08-11T15:36:15.495Z,29.90
2022-08-11T15:38:49.083Z,30.00
2022-08-11T15:41:54.258Z,30.10
2022-08-11T15:45:02.195Z,29.90
2022-08-11T15:47:41.322Z,30.00
2022-08-11T15:50:14.910Z,30.20
2022-08-11T15:53:07.775Z,30.30
2022-08-11T15:55:37.588Z,30.30
2022-08-11T15:58:27.751Z,30.30
2022-08-11T16:01:14.947Z,30.30
2022-08-11T16:04:12.565Z,30.30
2022-08-11T16:06:58.098Z,30.10
2022-08-11T16:09:43.761Z,30.10
2022-08-11T16:12:20.224Z,29.90
2022-08-11T16:15:10.268Z,29.80
2022-08-11T16:17:47.190Z,29.80
2022-08-11T16:20:17.355Z,29.60
2022-08-11T16:23:00.298Z,29.30
2022-08-11T16:27:04.890Z,29.10
2022-08-11T16:28:21.936Z,29.00
2022-08-11T16:30:50.046Z,29.00
2022-08-11T16:33:48.346Z,28.90
2022-08-11T16:36:25.351Z,28.80
2022-08-11T16:38:54.311Z,28.80
2022-08-11T16:41:44.311Z,28.80
2022-08-11T16:44:32.593Z,28.60
2022-08-11T16:47:10.722Z,28.50
2022-08-11T16:49:52.384Z,28.40
2022-08-11T16:52:22.477Z,28.30
2022-08-11T16:54:49.604Z,28.20
2022-08-11T16:57:39.890Z,28.10
2022-08-11T17:00:12.458Z,28.00
2022-08-11T17:03:04.773Z,27.80
2022-08-11T17:05:55.125Z,27.70
2022-08-11T17:08:57.494Z,27.50
2022-08-11T17:11:49.782Z,27.40
2022-08-11T17:14:51.375Z,27.30
2022-08-11T17:17:28.899Z,27.40
2022-08-11T17:20:41.377Z,27.30
2022-08-11T17:23:05.163Z,27.30
2022-08-11T17:26:03.190Z,27.30
2022-08-11T17:28:24.554Z,27.30
2022-08-11T17:31:22.291Z,27.30
2022-08-11T17:34:10.256Z,27.30
2022-08-11T17:36:41.612Z,27.40
2022-08-11T17:39:13.404Z,27.40
2022-08-11T17:42:00.771Z,27.30
2022-08-11T17:44:46.982Z,27.30
2022-08-11T17:47:33.509Z,27.30
2022-08-11T17:50:09.553Z,27.20
2022-08-11T17:53:04.691Z,27.20
2022-08-11T17:55:54.549Z,27.10
2022-08-11T17:58:41.964Z,27.10
2022-08-11T18:01:13.416Z,26.90
2022-08-11T18:03:53.076Z,26.80
2022-08-11T18:06:29.715Z,26.70
2022-08-11T18:09:22.735Z,26.50
2022-08-11T18:12:12.748Z,26.50
2022-08-11T18:15:02.545Z,26.30
2022-08-11T18:17:48.499Z,26.30
2022-08-11T18:20:33.835Z,26.30
2022-08-11T18:23:46.008Z,26.20
2022-08-11T18:26:30.269Z,26.20
2022-08-11T18:29:16.295Z,26.10
2022-08-11T18:32:08.391Z,26.00
2022-08-11T18:34:58.811Z,26.00
2022-08-11T18:37:51.856Z,25.90
2022-08-11T18:40:42.866Z,25.80
2022-08-11T18:43:30.257Z,25.60
2022-08-11T18:46:27.454Z,25.50
2022-08-11T18:50:02.472Z,25.40
2022-08-11T18:52:41.196Z,25.30
2022-08-11T18:55:30.174Z,25.10
2022-08-11T18:58:18.899Z,24.80
2022-08-11T19:01:05.722Z,24.60
2022-08-11T19:03:54.370Z,24.50
2022-08-11T19:06:42.344Z,24.30
2022-08-11T19:09:32.174Z,24.20
2022-08-11T19:12:19.192Z,24.10
2022-08-11T19:15:06.695Z,24.00
2022-08-11T19:17:56.123Z,23.80
2022-08-11T19:20:46.001Z,23.80
2022-08-11T19:23:35.655Z,23.70
2022-08-11T19:26:22.069Z,23.70
2022-08-11T19:29:09.146Z,23.60
2022-08-11T19:32:15.444Z,23.50
2022-08-11T19:35:01.255Z,23.40
2022-08-11T19:37:48.710Z,23.30
2022-08-11T19:40:35.368Z,23.20
2022-08-11T19:43:25.853Z,23.20
2022-08-11T19:46:15.621Z,23.10
2022-08-11T19:49:03.041Z,23.00
2022-08-11T19:51:53.473Z,23.00
2022-08-11T19:54:47.472Z,22.90
2022-08-11T19:57:39.285Z,22.80
2022-08-11T20:00:30.493Z,22.70
2022-08-11T20:03:20.209Z,22.60
2022-08-11T20:06:08.263Z,22.50
2022-08-11T20:08:58.626Z,22.40
2022-08-11T20:11:46.007Z,22.40
2022-08-11T20:14:33.046Z,22.30
2022-08-11T20:17:19.955Z,22.20
2022-08-11T20:20:07.994Z,22.10
2022-08-11T20:22:53.502Z,22.00
2022-08-11T20:25:43.085Z,21.90
2022-08-11T20:28:31.628Z,21.80
2022-08-11T20:31:16.977Z,21.70
2022-08-11T20:34:03.067Z,21.70
2022-08-11T20:36:54.090Z,21.60
2022-08-11T20:39:42.610Z,21.60
2022-08-11T20:42:30.673Z,21.60
2022-08-11T20:45:19.548Z,21.50
2022-08-11T20:48:15.169Z,21.50
2022-08-11T20:51:07.391Z,21.40
2022-08-11T20:53:59.911Z,21.30
2022-08-11T20:56:54.457Z,21.10
2022-08-11T20:59:50.107Z,20.90
2022-08-11T21:02:45.135Z,20.70
2022-08-11T21:08:45.729Z,20.40
2022-08-11T21:11:34.204Z,20.20
2022-08-11T21:14:23.645Z,20.10
2022-08-11T21:17:27.455Z,20.00
2022-08-11T21:20:21.055Z,20.00
2022-08-11T21:23:20.014Z,20.00
2022-08-11T21:26:21.302Z,20.00
2022-08-11T21:29:08.232Z,20.10
2022-08-11T21:31:54.533Z,20.20
2022-08-11T21:34:42.458Z,20.30
2022-08-11T21:37:29.233Z,20.40
2022-08-11T21:40:18.467Z,20.40
2022-08-11T21:43:06.315Z,20.40
2022-08-11T21:45:55.571Z,20.40
2022-08-11T21:48:43.912Z,20.20
2022-08-11T21:51:29.590Z,20.20
2022-08-11T21:54:17.833Z,20.10
2022-08-11T21:57:05.403Z,20.00
2022-08-11T22:00:12.696Z,20.00
2022-08-11T22:02:59.296Z,19.90
2022-08-11T22:05:45.569Z,19.90
2022-08-11T22:08:31.982Z,19.80
2022-08-11T22:11:32.231Z,19.80
2022-08-11T22:14:22.056Z,19.70
2022-08-11T22:17:08.478Z,19.60
2022-08-11T22:19:56.000Z,19.50
2022-08-11T22:22:52.017Z,19.50
2022-08-11T22:25:50.965Z,19.40
2022-08-11T22:28:38.351Z,19.40
2022-08-11T22:31:25.336Z,19.30
2022-08-11T22:34:10.597Z,19.30
2022-08-11T22:36:57.122Z,19.30
2022-08-11T22:39:45.275Z,19.30
2022-08-11T22:42:47.237Z,19.20
2022-08-11T22:45:33.156Z,19.20
2022-08-11T22:48:20.262Z,19.20
2022-08-11T22:51:06.230Z,19.10
2022-08-11T22:53:57.316Z,19.00
2022-08-11T22:56:48.803Z,18.90
2022-08-11T22:59:35.995Z,18.80
2022-08-11T23:02:23.495Z,18.80
2022-08-11T23:05:10.543Z,18.70
2022-08-11T23:07:56.867Z,18.60
2022-08-11T23:10:42.859Z,18.50
2022-08-11T23:13:28.909Z,18.40
2022-08-11T23:16:15.371Z,18.40
2022-08-11T23:19:01.234Z,18.40
2022-08-11T23:21:47.739Z,18.30
2022-08-11T23:24:33.823Z,18.20
2022-08-11T23:27:21.272Z,18.20
2022-08-11T23:30:09.263Z,18.20
2022-08-11T23:32:56.224Z,18.10
2022-08-11T23:35:53.986Z,17.90
2022-08-11T23:38:43.675Z,17.90
2022-08-11T23:41:32.080Z,17.80
2022-08-11T23:44:19.485Z,17.60
2022-08-11T23:47:07.696Z,17.50
2022-08-11T23:49:56.095Z,17.40
2022-08-11T23:52:45.318Z,17.30
2022-08-11T23:55:30.842Z,17.30
2022-08-11T23:58:16.722Z,17.20
